Time;durP1;ratioP1;P1;durP2;ratioP2;P2;SDS_P1;SDS_P2;PMS_P1;PMS_P2;Temp;Humidity;BMP_temperature;BMP_pressure;BME280_temperature;BME280_humidity;BME280_pressure;Samples;Min_cycle;Max_cycle;Signal;HPM_P1;HPM_P2
2022/09/25 00:01:09;;;;;;;7.70;6.13;;;;;;;14.95;45.66;100967.69;5071146;28;20128;-69
2022/09/25 00:03:39;;;;;;;7.95;5.90;;;;;;;14.97;45.75;100968.38;5068392;28;20479;-71
2022/09/25 00:06:10;;;;;;;8.30;6.55;;;;;;;14.96;45.75;100968.53;5064807;28;20094;-71
2022/09/25 00:08:38;;;;;;;7.70;5.65;;;;;;;14.95;45.88;100978.69;5066102;28;20033;-71
2022/09/25 00:11:08;;;;;;;7.18;5.70;;;;;;;14.96;45.43;100972.16;5067178;28;20068;-71
2022/09/25 00:13:37;;;;;;;9.90;6.20;;;;;;;14.95;45.87;100970.44;5068349;28;20036;-71
2022/09/25 00:16:05;;;;;;;8.48;5.55;;;;;;;14.95;45.74;100972.31;5068166;28;20598;-71
2022/09/25 00:21:20;;;;;;;7.03;5.45;;;;;;;14.93;45.34;100971.63;5058985;28;20080;-71
2022/09/25 00:23:47;;;;;;;7.82;5.85;;;;;;;14.90;45.41;100969.19;5068611;28;20102;-71
2022/09/25 00:26:16;;;;;;;7.38;5.80;;;;;;;14.90;45.66;100975.56;5068289;28;20048;-70
2022/09/25 00:28:44;;;;;;;6.55;4.68;;;;;;;14.88;45.73;100968.47;5068621;28;20037;-70
2022/09/25 00:31:20;;;;;;;7.28;4.65;;;;;;;14.88;45.66;100961.06;5069445;28;20043;-71
2022/09/25 00:33:48;;;;;;;7.90;5.20;;;;;;;14.83;45.62;100960.72;5065895;28;20066;-71
2022/09/25 00:36:15;;;;;;;6.68;4.97;;;;;;;14.83;45.36;100960.72;5067587;28;20508;-71
2022/09/25 00:38:45;;;;;;;7.80;5.15;;;;;;;14.84;45.43;100956.06;5068929;28;20029;-71
2022/09/25 00:41:12;;;;;;;7.18;4.28;;;;;;;14.82;45.52;100964.47;5067793;28;20048;-71
2022/09/25 00:43:43;;;;;;;7.15;4.45;;;;;;;14.82;45.54;100958.97;5068172;28;20048;-71
2022/09/25 00:46:15;;;;;;;5.95;4.38;;;;;;;14.83;45.89;100965.34;5067121;28;20148;-71
2022/09/25 00:48:49;;;;;;;6.50;4.70;;;;;;;14.80;45.53;100963.75;5067919;28;20036;-71
2022/09/25 00:51:28;;;;;;;8.57;4.90;;;;;;;14.81;46.03;100971.00;5066096;28;20052;-71
2022/09/25 00:54:03;;;;;;;6.55;4.45;;;;;;;14.79;46.04;100967.53;5060077;28;20052;-70
2022/09/25 00:56:36;;;;;;;6.32;4.45;;;;;;;14.80;45.98;100971.16;5061628;28;20048;-71
2022/09/25 00:59:05;;;;;;;5.28;4.05;;;;;;;14.77;45.36;100975.09;5066804;28;20120;-71
2022/09/25 01:01:33;;;;;;;6.40;4.57;;;;;;;14.76;45.35;100976.16;5066554;28;20839;-71
2022/09/25 01:04:02;;;;;;;6.00;4.60;;;;;;;14.76;45.79;100973.41;5066439;28;20040;-71
2022/09/25 01:06:32;;;;;;;7.13;4.75;;;;;;;14.78;45.89;100979.59;5065721;28;20075;-71
2022/09/25 01:09:02;;;;;;;6.22;4.28;;;;;;;14.78;45.89;100976.81;5063111;28;20068;-71
2022/09/25 01:11:30;;;;;;;6.32;4.25;;;;;;;14.74;45.92;100981.81;5067489;28;20049;-71
2022/09/25 01:14:01;;;;;;;5.97;4.10;;;;;;;14.76;45.93;100978.91;5066510;28;20037;-71
2022/09/25 01:16:37;;;;;;;5.68;3.75;;;;;;;14.75;45.42;100977.16;5065310;28;20574;-71
2022/09/25 01:19:17;;;;;;;5.18;3.40;;;;;;;14.74;45.99;100969.91;5048218;28;20412;-71
2022/09/25 01:21:51;;;;;;;5.18;3.38;;;;;;;14.71;45.39;100973.84;5050579;28;20134;-71
2022/09/25 01:25:02;;;;;;;5.28;3.10;;;;;;;14.63;46.00;100975.66;5066015;28;20541;-71
2022/09/25 01:27:58;;;;;;;4.13;2.58;;;;;;;14.65;45.55;100980.00;5065481;28;20373;-71
2022/09/25 01:30:33;;;;;;;6.38;2.75;;;;;;;14.65;45.68;100970.88;5058700;28;20106;-70
2022/09/25 01:33:07;;;;;;;4.60;3.13;;;;;;;14.65;45.85;100979.13;5064751;28;20072;-71
2022/09/25 01:35:41;;;;;;;5.72;2.67;;;;;;;14.65;45.71;100973.63;5065808;28;20041;-71
2022/09/25 01:38:19;;;;;;;3.53;2.55;;;;;;;14.63;45.82;100982.03;5068619;28;20044;-71
2022/09/25 01:40:56;;;;;;;7.00;2.63;;;;;;;14.63;45.30;100983.94;5063887;28;20040;-71
2022/09/25 01:43:30;;;;;;;5.80;3.25;;;;;;;14.62;45.66;100977.56;5049254;28;20050;-71
2022/09/25 01:46:04;;;;;;;4.38;2.08;;;;;;;14.60;45.77;100978.75;5064228;28;20048;-71
2022/09/25 01:48:33;;;;;;;5.00;2.40;;;;;;;14.58;45.16;100987.16;5060592;28;20052;-71
2022/09/25 01:51:05;;;;;;;3.20;2.05;;;;;;;14.57;45.01;100985.44;5064987;28;20101;-71
2022/09/25 01:53:38;;;;;;;4.70;2.00;;;;;;;14.54;45.57;100990.38;5036005;28;20144;-70
2022/09/25 01:56:11;;;;;;;6.10;1.92;;;;;;;14.53;45.21;100989.50;5064147;28;20044;-71
2022/09/25 01:58:43;;;;;;;4.85;2.05;;;;;;;14.53;45.68;100995.03;5044027;28;20581;-71
2022/09/25 02:01:22;;;;;;;4.05;1.80;;;;;;;14.53;45.70;100997.78;5069918;28;20461;-71
2022/09/25 02:03:56;;;;;;;4.00;1.85;;;;;;;14.51;45.59;100997.09;5065339;28;20109;-71
2022/09/25 02:06:25;;;;;;;3.95;1.75;;;;;;;14.49;45.31;100992.75;5064559;28;20067;-71
2022/09/25 02:09:00;;;;;;;3.85;2.40;;;;;;;14.48;45.69;100996.53;5068038;28;20040;-70
2022/09/25 02:11:59;;;;;;;6.10;2.17;;;;;;;14.45;46.10;100996.78;5064224;28;20481;-71
2022/09/25 02:14:30;;;;;;;4.85;2.30;;;;;;;14.42;45.42;100986.09;5065410;28;20047;-71
2022/09/25 02:17:02;;;;;;;7.03;2.20;;;;;;;14.42;45.98;100991.63;5067866;28;20109;-71
2022/09/25 02:22:21;;;;;;;5.00;2.40;;;;;;;14.36;46.06;100993.94;5065588;28;20075;-71
2022/09/25 02:24:55;;;;;;;4.68;2.30;;;;;;;14.34;46.27;100993.25;5065011;28;20043;-71
2022/09/25 02:27:27;;;;;;;6.07;2.22;;;;;;;14.33;45.72;100991.53;5066254;28;20113;-71
2022/09/25 02:29:57;;;;;;;4.68;2.40;;;;;;;14.33;45.81;100994.28;5068837;28;20079;-71
2022/09/25 02:32:29;;;;;;;3.78;2.55;;;;;;;14.35;46.73;100989.47;5066521;28;20080;-71
2022/09/25 02:34:59;;;;;;;4.57;2.50;;;;;;;14.31;46.00;100988.06;5061439;28;20040;-71
2022/09/25 02:37:28;;;;;;;4.80;2.40;;;;;;;14.33;46.48;100990.66;5065559;28;20041;-71
2022/09/25 02:39:59;;;;;;;6.35;2.78;;;;;;;14.34;46.52;100989.63;5067429;28;20488;-71
2022/09/25 02:42:35;;;;;;;3.88;2.45;;;;;;;14.36;46.98;100990.31;5065735;28;20119;-69
2022/09/25 02:45:12;;;;;;;3.95;2.42;;;;;;;14.35;47.13;100994.97;5047372;28;20469;-71
2022/09/25 02:47:49;;;;;;;5.13;2.42;;;;;;;14.35;46.73;100983.13;5063359;28;20449;-71
2022/09/25 02:50:23;;;;;;;4.57;2.40;;;;;;;14.35;47.05;100989.47;5065078;28;20060;-71
2022/09/25 02:52:58;;;;;;;4.70;2.50;;;;;;;14.34;46.78;100985.00;5058198;28;20046;-71
2022/09/25 02:55:34;;;;;;;4.40;2.50;;;;;;;14.35;47.00;100988.63;5066214;28;20040;-71
2022/09/25 02:58:08;;;;;;;4.07;2.30;;;;;;;14.35;46.80;100992.22;5065305;28;20071;-71
2022/09/25 03:00:38;;;;;;;5.15;2.40;;;;;;;14.34;46.27;100990.50;5063238;28;20535;-71
2022/09/25 03:03:12;;;;;;;5.18;2.45;;;;;;;14.35;46.36;100992.22;5063583;28;20098;-71
2022/09/25 03:05:41;;;;;;;5.43;2.30;;;;;;;14.32;45.91;100984.28;5047175;28;20049;-71
2022/09/25 03:10:55;;;;;;;4.47;2.00;;;;;;;14.30;46.05;100988.22;5069433;28;20052;-71
2022/09/25 03:13:30;;;;;;;4.25;1.75;;;;;;;14.32;46.48;100988.91;5070677;28;20913;-71
2022/09/25 03:16:00;;;;;;;2.78;1.65;;;;;;;14.32;46.55;100988.91;5069673;28;20045;-71
2022/09/25 03:18:31;;;;;;;3.50;2.00;;;;;;;14.31;46.03;100993.56;5071007;28;20747;-71
2022/09/25 03:20:59;;;;;;;4.22;1.80;;;;;;;14.29;46.10;100998.34;5066698;28;20048;-71
2022/09/25 03:23:26;;;;;;;3.60;1.60;;;;;;;14.29;45.82;100994.72;5067086;28;20041;-71
2022/09/25 03:25:55;;;;;;;4.55;1.65;;;;;;;14.29;46.23;101000.22;5065136;28;20051;-71
2022/09/25 03:28:23;;;;;;;3.17;1.60;;;;;;;14.29;45.79;101003.00;5069254;28;20040;-71
2022/09/25 03:30:59;;;;;;;2.90;1.38;;;;;;;14.31;45.90;100998.19;5068652;28;20344;-70
2022/09/25 03:33:31;;;;;;;4.05;1.48;;;;;;;14.29;45.85;101000.22;5069096;28;20033;-71
2022/09/25 03:36:09;;;;;;;3.10;1.52;;;;;;;14.29;46.20;101003.00;5070401;28;20040;-71
2022/09/25 03:38:37;;;;;;;3.10;1.40;;;;;;;14.25;45.75;101002.44;5047161;28;20044;-71
2022/09/25 03:41:08;;;;;;;4.78;1.50;;;;;;;14.23;45.92;101004.47;5065050;28;20040;-71
2022/09/25 03:43:36;;;;;;;4.38;1.67;;;;;;;14.20;46.09;101007.53;5068611;28;20041;-71
2022/09/25 03:46:04;;;;;;;4.18;1.30;;;;;;;14.18;45.59;101006.84;5069249;28;20455;-71
2022/09/25 03:48:34;;;;;;;4.72;1.52;;;;;;;14.18;45.72;101006.84;5069370;28;20044;-71
2022/09/25 03:51:03;;;;;;;3.35;1.35;;;;;;;14.16;46.09;101005.25;5070748;28;20036;-70
2022/09/25 03:53:32;;;;;;;4.88;1.52;;;;;;;14.13;45.72;101006.44;5062611;28;20048;-70
2022/09/25 03:56:00;;;;;;;2.92;1.27;;;;;;;14.13;46.13;101003.66;5069748;28;20037;-71
2022/09/25 03:58:28;;;;;;;2.50;1.20;;;;;;;14.13;45.74;100997.28;5072828;28;20053;-71
2022/09/25 04:00:57;;;;;;;3.03;1.25;;;;;;;14.12;45.61;101004.69;5061504;28;20048;-70
2022/09/25 04:03:26;;;;;;;3.58;1.30;;;;;;;14.12;45.88;101001.06;5069119;28;20051;-70
2022/09/25 04:05:56;;;;;;;5.45;1.67;;;;;;;14.12;45.72;101003.81;5064449;28;20033;-70
2022/09/25 04:08:25;;;;;;;2.95;1.33;;;;;;;14.10;45.85;101004.00;5069300;28;20040;-70
2022/09/25 04:10:55;;;;;;;3.20;1.38;;;;;;;14.09;46.05;101005.00;5068335;28;20127;-70
2022/09/25 04:13:23;;;;;;;3.40;1.55;;;;;;;14.09;45.52;101004.16;5054625;28;20098;-71
2022/09/25 04:15:51;;;;;;;3.00;1.40;;;;;;;14.07;45.61;101000.69;5065678;28;20558;-70
2022/09/25 04:18:19;;;;;;;3.63;1.70;;;;;;;14.06;45.55;100997.06;5067848;28;20106;-70
2022/09/25 04:20:47;;;;;;;3.50;1.40;;;;;;;14.05;45.67;100999.94;5070203;28;20583;-70
2022/09/25 04:23:17;;;;;;;2.30;1.20;;;;;;;14.04;45.40;100993.59;5067729;28;20054;-70
2022/09/25 04:25:45;;;;;;;4.15;1.30;;;;;;;14.02;45.39;100994.78;5067780;28;20040;-70
2022/09/25 04:28:13;;;;;;;3.45;1.60;;;;;;;14.00;46.05;100995.78;5068591;28;20043;-70
2022/09/25 04:30:40;;;;;;;3.83;1.30;;;;;;;13.99;45.98;100988.56;5069039;28;20048;-70
2022/09/25 04:35:55;;;;;;;4.20;1.88;;;;;;;13.96;45.40;100986.09;5071376;28;20075;-70
2022/09/25 04:38:24;;;;;;;2.95;1.25;;;;;;;13.97;45.84;100987.84;5069705;28;20041;-70
2022/09/25 04:40:52;;;;;;;3.83;1.38;;;;;;;13.96;45.70;100990.72;5067867;28;20068;-70
2022/09/25 04:43:20;;;;;;;3.85;1.50;;;;;;;13.95;46.01;100997.25;5065920;28;20052;-70
2022/09/25 04:45:49;;;;;;;4.10;1.33;;;;;;;13.93;45.80;100991.94;5069937;28;20051;-70
2022/09/25 04:48:17;;;;;;;3.92;1.20;;;;;;;13.93;45.92;101000.19;5068185;28;20071;-70
2022/09/25 04:50:48;;;;;;;4.25;1.52;;;;;;;13.94;45.53;101004.63;5067661;28;20383;-70
2022/09/25 04:53:16;;;;;;;4.00;1.45;;;;;;;13.91;45.63;101004.09;5063092;28;20037;-70
2022/09/25 04:55:46;;;;;;;3.03;1.30;;;;;;;13.91;45.89;101012.34;5066929;28;20098;-70
2022/09/25 04:58:14;;;;;;;2.80;1.52;;;;;;;13.88;45.34;101007.13;5067866;28;20047;-70
2022/09/25 05:00:42;;;;;;;2.65;1.65;;;;;;;13.87;45.43;101010.91;5066092;28;20125;-69
2022/09/25 05:03:10;;;;;;;4.20;1.30;;;;;;;13.85;45.35;101008.34;5066325;28;20049;-69
2022/09/25 05:05:38;;;;;;;4.03;1.58;;;;;;;13.83;45.48;101007.59;5050250;28;20064;-70
2022/09/25 05:08:06;;;;;;;2.47;1.20;;;;;;;13.82;45.92;101008.63;5067739;28;20041;-70
2022/09/25 05:10:34;;;;;;;2.42;1.38;;;;;;;13.81;45.87;101009.63;5067851;28;20094;-70
2022/09/25 05:13:05;;;;;;;3.58;1.30;;;;;;;13.82;45.61;101011.38;5049942;28;20043;-70
2022/09/25 05:15:33;;;;;;;2.95;1.70;;;;;;;13.79;45.94;101003.41;5066784;28;20166;-70
2022/09/25 05:18:02;;;;;;;3.00;1.50;;;;;;;13.79;45.86;101013.53;5066884;28;20699;-70
2022/09/25 05:20:30;;;;;;;2.72;1.30;;;;;;;13.78;45.83;101014.56;5066867;28;20424;-71
2022/09/25 05:22:59;;;;;;;3.30;1.52;;;;;;;13.79;45.55;101003.41;5067347;28;20060;-71
2022/09/25 05:25:27;;;;;;;4.00;1.73;;;;;;;13.77;46.22;101004.59;5065425;28;20603;-68
2022/09/25 05:27:58;;;;;;;3.35;1.50;;;;;;;13.77;45.70;101001.84;5067506;28;20098;-71
2022/09/25 05:30:29;;;;;;;4.70;1.50;;;;;;;13.76;45.95;101000.97;5060522;28;20048;-71
2022/09/25 05:32:58;;;;;;;3.70;1.90;;;;;;;13.72;46.31;101005.03;5067618;28;20058;-71
2022/09/25 05:35:28;;;;;;;3.88;1.40;;;;;;;13.73;46.18;100998.53;5063745;28;20070;-70
2022/09/25 05:37:56;;;;;;;4.25;1.50;;;;;;;13.70;46.11;100996.06;5067299;28;20036;-70
2022/09/25 05:40:24;;;;;;;4.43;1.65;;;;;;;13.70;46.02;101004.31;5068747;28;20098;-71
2022/09/25 05:42:53;;;;;;;4.68;1.50;;;;;;;13.70;46.08;101003.44;5065835;28;20671;-71
2022/09/25 05:45:22;;;;;;;3.28;1.40;;;;;;;13.69;46.02;101002.63;5067860;28;20071;-71
2022/09/25 05:48:01;;;;;;;5.53;1.77;;;;;;;13.70;45.94;101009.81;5068064;28;20480;-71
2022/09/25 05:50:31;;;;;;;4.70;1.55;;;;;;;13.66;45.88;101002.91;5070262;28;20500;-71
2022/09/25 05:52:59;;;;;;;4.15;1.80;;;;;;;13.67;45.64;101009.28;5060529;28;20385;-70
2022/09/25 05:55:28;;;;;;;4.93;1.30;;;;;;;13.67;45.92;101014.78;5068707;28;20048;-71
2022/09/25 05:58:00;;;;;;;2.85;1.20;;;;;;;13.69;45.86;101012.75;5067340;28;20044;-71
2022/09/25 06:00:27;;;;;;;3.67;1.70;;;;;;;13.62;45.85;101013.31;5065065;28;20073;-71
2022/09/25 06:02:55;;;;;;;4.28;1.33;;;;;;;13.65;46.25;101011.31;5065278;28;20033;-70
2022/09/25 06:05:25;;;;;;;3.95;1.40;;;;;;;13.66;45.67;101011.16;5069161;28;20044;-71
2022/09/25 06:07:53;;;;;;;3.75;1.35;;;;;;;13.65;45.76;101016.81;5067696;28;20044;-71
2022/09/25 06:10:21;;;;;;;4.10;1.52;;;;;;;13.64;45.88;101015.94;5066165;28;20430;-71
2022/09/25 06:12:49;;;;;;;2.97;1.30;;;;;;;13.64;46.15;101015.94;5067418;28;20040;-71
2022/09/25 06:15:17;;;;;;;3.55;1.23;;;;;;;13.65;45.69;101019.56;5056361;28;20044;-71
2022/09/25 06:17:44;;;;;;;3.83;1.25;;;;;;;13.66;46.14;101018.53;5066542;28;20440;-71
2022/09/25 06:20:12;;;;;;;4.13;1.50;;;;;;;13.65;46.21;101019.56;5060299;28;20041;-71
2022/09/25 06:22:44;;;;;;;4.85;1.38;;;;;;;13.67;46.22;101021.16;5066507;28;20033;-71
2022/09/25 06:25:14;;;;;;;3.85;1.30;;;;;;;13.66;46.35;101018.53;5065753;28;20101;-71
2022/09/25 06:27:42;;;;;;;2.63;1.20;;;;;;;13.67;46.36;101018.41;5068246;28;20432;-71
2022/09/25 06:30:11;;;;;;;4.60;1.60;;;;;;;13.70;46.32;101025.44;5065833;28;20049;-71
2022/09/25 06:32:38;;;;;;;2.95;1.10;;;;;;;13.72;46.54;101031.69;5068223;28;20094;-71
2022/09/25 06:35:07;;;;;;;5.95;1.60;;;;;;;13.75;46.15;101031.38;5064753;28;20048;-71
2022/09/25 06:37:34;;;;;;;4.45;1.30;;;;;;;13.78;46.20;101036.56;5066817;28;20041;-71
2022/09/25 06:40:04;;;;;;;3.50;1.20;;;;;;;13.85;46.82;101032.22;5065903;28;20044;-71
2022/09/25 06:42:34;;;;;;;3.90;1.30;;;;;;;13.91;46.78;101034.34;5064302;28;20039;-71
2022/09/25 06:45:01;;;;;;;3.05;1.20;;;;;;;14.01;47.51;101037.94;5062707;28;20089;-71
2022/09/25 06:47:29;;;;;;;3.92;1.20;;;;;;;14.16;47.73;101047.41;5070642;28;20048;-71
2022/09/25 06:49:57;;;;;;;3.88;1.20;;;;;;;14.36;48.20;101043.50;5065320;28;20037;-71
2022/09/25 06:52:26;;;;;;;3.08;1.30;;;;;;;14.61;48.26;101043.81;5060229;28;20068;-71
2022/09/25 06:54:54;;;;;;;3.38;1.27;;;;;;;14.87;48.44;101039.25;5066490;28;20063;-71
2022/09/25 06:57:23;;;;;;;3.97;1.15;;;;;;;15.19;47.50;101044.19;5065895;28;20412;-71
2022/09/25 06:59:51;;;;;;;4.53;1.20;;;;;;;15.50;47.50;101045.50;5048342;28;20063;-69
2022/09/25 07:05:07;;;;;;;3.90;1.13;;;;;;;16.24;47.12;101046.78;5040320;28;20068;-68
2022/09/25 07:07:35;;;;;;;4.82;1.30;;;;;;;16.60;46.42;101044.63;5065544;28;20086;-70
2022/09/25 07:10:03;;;;;;;3.22;1.00;;;;;;;16.93;45.31;101035.38;5065824;28;20127;-69
2022/09/25 07:12:33;;;;;;;3.72;1.17;;;;;;;17.32;44.55;101048.53;5071667;28;20048;-58
2022/09/25 07:15:01;;;;;;;3.53;1.30;;;;;;;17.60;43.55;101051.78;5064754;28;20048;-59
2022/09/25 07:17:29;;;;;;;4.53;1.25;;;;;;;17.85;42.18;101053.50;5070411;28;20055;-60
2022/09/25 07:19:56;;;;;;;3.78;1.55;;;;;;;18.02;41.71;101052.41;5063625;28;20116;-60
2022/09/25 07:22:24;;;;;;;3.38;1.58;;;;;;;18.13;41.03;101059.47;5065735;28;20037;-60
2022/09/25 07:24:52;;;;;;;4.25;1.70;;;;;;;18.18;39.93;101057.03;5066101;28;20127;-60
2022/09/25 07:27:20;;;;;;;4.13;1.38;;;;;;;18.19;39.27;101055.97;5067679;28;20040;-59
2022/09/25 07:29:49;;;;;;;3.03;1.30;;;;;;;18.17;39.06;101054.41;5068933;28;20118;-60
2022/09/25 07:32:16;;;;;;;3.53;1.20;;;;;;;18.09;38.93;101060.84;5062342;28;20441;-60
2022/09/25 07:34:45;;;;;;;3.08;1.05;;;;;;;18.01;39.20;101056.22;5058066;28;20036;-60
2022/09/25 07:37:12;;;;;;;4.20;1.40;;;;;;;17.94;39.05;101057.09;5059986;28;20037;-61
2022/09/25 07:39:40;;;;;;;2.63;1.15;;;;;;;17.85;39.08;101059.03;5066309;28;20051;-61
2022/09/25 07:42:08;;;;;;;3.85;1.00;;;;;;;17.76;38.74;101057.31;5064592;28;20044;-60
2022/09/25 07:44:36;;;;;;;4.75;1.35;;;;;;;17.66;38.68;101068.56;5066742;28;20492;-60
2022/09/25 07:47:07;;;;;;;3.00;1.00;;;;;;;17.60;38.76;101073.94;5061994;28;20043;-61
2022/09/25 07:49:35;;;;;;;3.97;1.00;;;;;;;17.51;38.79;101066.69;5063000;28;20094;-61
2022/09/25 07:52:05;;;;;;;4.90;1.30;;;;;;;17.44;39.08;101060.97;5059735;28;20493;-61
2022/09/25 07:54:33;;;;;;;3.70;1.35;;;;;;;17.39;39.92;101058.75;5069034;28;20144;-63
2022/09/25 07:57:01;;;;;;;4.13;1.40;;;;;;;17.38;40.30;101058.91;5064533;28;20044;-65
2022/09/25 07:59:29;;;;;;;4.90;1.40;;;;;;;17.39;39.98;101060.66;5069191;28;20127;-63
2022/09/25 08:01:57;;;;;;;5.43;1.50;;;;;;;17.40;39.83;101060.44;5070196;28;20047;-65
2022/09/25 08:04:27;;;;;;;4.15;1.20;;;;;;;17.43;39.36;101063.91;5067865;28;20037;-71
2022/09/25 08:06:54;;;;;;;3.88;1.08;;;;;;;17.43;39.32;101053.72;5069742;28;20048;-70
2022/09/25 08:09:22;;;;;;;4.18;1.60;;;;;;;17.44;39.51;101052.69;5066793;28;20043;-71
2022/09/25 08:11:50;;;;;;;4.60;1.60;;;;;;;17.47;38.84;101059.78;5049587;28;20041;-71
2022/09/25 08:14:18;;;;;;;3.20;1.10;;;;;;;17.46;39.17;101063.56;5050000;28;20071;-71
2022/09/25 08:16:54;;;;;;;5.82;1.48;;;;;;;17.43;38.85;101058.38;5067869;28;20546;-71
2022/09/25 08:19:22;;;;;;;5.70;1.23;;;;;;;17.45;38.47;101067.38;5068777;28;20448;-71
2022/09/25 08:21:52;;;;;;;3.13;1.25;;;;;;;17.47;38.95;101066.19;5056143;28;20041;-72
2022/09/25 08:24:20;;;;;;;4.72;1.50;;;;;;;17.47;39.15;101066.19;5068671;28;20735;-72
2022/09/25 08:26:49;;;;;;;1.75;0.90;;;;;;;17.50;38.80;101073.25;5044452;28;20044;-72
2022/09/25 08:29:17;;;;;;;4.65;1.42;;;;;;;17.54;39.11;101067.19;5069380;28;20052;-71
2022/09/25 08:31:45;;;;;;;2.83;1.00;;;;;;;17.59;38.77;101072.19;5068469;28;20045;-71
2022/09/25 08:34:15;;;;;;;3.70;1.27;;;;;;;17.66;38.79;101064.91;5048181;28;20036;-72
2022/09/25 08:37:06;;;;;;;4.45;1.00;;;;;;;17.73;39.21;101069.56;5068227;28;20052;-71
2022/09/25 08:39:34;;;;;;;2.75;1.05;;;;;;;17.81;38.74;101065.97;5071081;28;20050;-71
2022/09/25 08:42:02;;;;;;;3.53;1.10;;;;;;;17.90;38.56;101064.03;5067512;28;20504;-71
2022/09/25 08:44:36;;;;;;;3.17;1.15;;;;;;;17.99;38.49;101063.81;5069270;28;20516;-70
2022/09/25 08:50:11;;;;;;;2.78;1.05;;;;;;;18.07;36.62;101062.94;5026132;28;20065;-70
2022/09/25 08:52:44;;;;;;;3.63;1.08;;;;;;;18.10;36.68;101057.06;5055086;28;20508;-70
2022/09/25 08:55:16;;;;;;;2.70;1.20;;;;;;;18.09;36.43;101067.25;5067581;28;20040;-69
2022/09/25 08:57:46;;;;;;;3.72;1.83;;;;;;;18.07;36.45;101058.25;5067471;28;20677;-71
2022/09/25 09:00:19;;;;;;;4.43;1.10;;;;;;;18.05;35.88;101062.28;5053458;28;20570;-70
2022/09/25 09:02:53;;;;;;;5.35;1.20;;;;;;;17.98;35.90;101059.31;5057534;28;20091;-70
2022/09/25 09:05:26;;;;;;;3.42;1.08;;;;;;;17.94;36.61;101059.88;5066636;28;20120;-69
2022/09/25 09:08:00;;;;;;;3.95;1.23;;;;;;;17.89;35.81;101060.44;5068195;28;20036;-71
2022/09/25 09:10:33;;;;;;;1.95;0.80;;;;;;;17.87;36.35;101065.28;5064607;28;20991;-71
2022/09/25 09:13:20;;;;;;;3.42;1.10;;;;;;;17.85;35.90;101069.25;5084154;22;20056;-83
2022/09/25 09:15:56;;;;;;;2.22;0.80;;;;;;;17.84;35.96;101064.75;5037295;28;20064;-84
2022/09/25 09:18:25;;;;;;;2.47;0.90;;;;;;;17.84;36.42;101064.75;5056695;28;20108;-83
2022/09/25 09:21:10;;;;;;;2.50;1.00;;;;;;;17.84;34.67;101061.97;5056189;28;20041;-84
2022/09/25 09:23:49;;;;;;;1.90;0.82;;;;;;;17.84;35.18;101060.06;5051727;28;20129;-84
2022/09/25 09:26:24;;;;;;;3.35;0.90;;;;;;;17.84;35.59;101062.84;5035633;28;20049;-82
2022/09/25 09:29:19;;;;;;;3.10;1.00;;;;;;;17.86;35.33;101058.00;5037613;28;20036;-81
2022/09/25 09:31:56;;;;;;;2.17;0.73;;;;;;;17.90;36.44;101059.34;5043410;28;20534;-81
2022/09/25 09:34:40;;;;;;;3.92;0.90;;;;;;;17.98;35.56;101058.47;5036650;28;20045;-82
2022/09/25 09:37:43;;;;;;;1.92;0.90;;;;;;;18.04;34.98;101055.88;5059684;28;20053;-83
2022/09/25 09:40:24;;;;;;;2.90;0.98;;;;;;;18.11;34.97;101054.09;5036793;28;20052;-83
2022/09/25 09:43:05;;;;;;;2.58;0.82;;;;;;;18.22;35.50;101047.31;5032812;28;20037;-81
2022/09/25 09:45:44;;;;;;;3.38;0.80;;;;;;;18.31;35.46;101048.97;5047366;28;20044;-83
2022/09/25 09:48:18;;;;;;;2.92;0.93;;;;;;;18.39;34.96;101046.16;5046470;28;20049;-83
2022/09/25 09:50:51;;;;;;;3.08;0.90;;;;;;;18.45;34.69;101050.16;5046701;28;20079;-83
2022/09/25 09:53:32;;;;;;;1.83;0.80;;;;;;;18.49;32.35;101043.22;5049695;28;20048;-82
2022/09/25 09:56:06;;;;;;;2.03;0.80;;;;;;;18.49;33.13;101043.22;5034179;28;20073;-83
2022/09/25 09:58:44;;;;;;;4.00;1.08;;;;;;;18.50;33.13;101044.94;5049607;28;20048;-81
2022/09/25 10:01:13;;;;;;;4.05;0.88;;;;;;;18.48;33.79;101038.69;5033486;28;20036;-81
2022/09/25 10:04:05;;;;;;;3.33;1.00;;;;;;;18.44;33.43;101046.50;5047796;28;20640;-81
2022/09/25 10:06:38;;;;;;;4.05;0.90;;;;;;;18.43;34.08;101036.47;5024397;28;20122;-81
2022/09/25 10:09:07;;;;;;;1.75;0.63;;;;;;;18.43;34.76;101047.56;5028848;28;20045;-82
2022/09/25 10:11:37;;;;;;;2.13;0.70;;;;;;;18.47;33.90;101043.34;5039359;28;20041;-82
2022/09/25 10:14:05;;;;;;;3.00;1.00;;;;;;;18.50;34.75;101042.16;5034001;28;20051;-82
2022/09/25 10:16:35;;;;;;;3.10;0.80;;;;;;;18.56;34.31;101044.22;5033109;28;20515;-82
2022/09/25 10:19:10;;;;;;;2.88;0.75;;;;;;;18.65;33.76;101036.72;5048078;28;20065;-84
2022/09/25 10:21:42;;;;;;;2.78;0.85;;;;;;;18.71;33.96;101031.31;5045169;28;20060;-82
2022/09/25 10:24:10;;;;;;;1.75;0.60;;;;;;;18.77;33.65;101035.25;5041565;28;20211;-82
2022/09/25 10:26:40;;;;;;;2.72;0.70;;;;;;;18.83;33.11;101038.16;5051719;28;20037;-82
2022/09/25 10:29:26;;;;;;;2.75;0.90;;;;;;;18.88;32.66;101032.91;5050321;28;20124;-82
2022/09/25 10:31:59;;;;;;;1.52;0.50;;;;;;;18.94;33.12;101033.22;5046607;28;20044;-82
2022/09/25 10:34:28;;;;;;;1.75;0.70;;;;;;;18.98;33.83;101027.09;5050116;28;20561;-81
2022/09/25 10:36:57;;;;;;;1.38;0.60;;;;;;;19.06;33.31;101032.59;5024678;28;20037;-82
2022/09/25 10:39:30;;;;;;;2.40;0.93;;;;;;;19.14;32.38;101031.66;5038692;28;20148;-81
2022/09/25 10:42:37;;;;;;;1.75;0.80;;;;;;;19.20;32.27;101025.38;5049058;28;20041;-82
2022/09/25 10:45:40;;;;;;;2.08;0.70;;;;;;;19.18;31.73;101027.47;5045049;28;20041;-82
2022/09/25 10:51:16;;;;;;;1.63;0.70;;;;;;;19.33;32.41;101033.09;4960397;28;20057;-83
2022/09/25 10:53:46;;;;;;;3.15;0.80;;;;;;;19.38;32.42;101025.91;5029728;28;20064;-83
2022/09/25 10:56:18;;;;;;;1.58;0.75;;;;;;;19.43;32.23;101028.16;5048978;28;20091;-83
2022/09/25 10:58:53;;;;;;;1.65;0.65;;;;;;;19.42;31.63;101027.28;5047354;28;20354;-82
2022/09/25 11:01:30;;;;;;;2.30;0.70;;;;;;;19.47;31.50;101038.66;5030526;28;20057;-83
2022/09/25 11:03:59;;;;;;;2.33;0.65;;;;;;;19.45;31.86;101029.69;5030557;28;20553;-82
2022/09/25 11:06:31;;;;;;;2.88;0.60;;;;;;;19.47;31.94;101030.34;5029473;28;20050;-83
2022/09/25 11:09:07;;;;;;;2.00;0.70;;;;;;;19.48;31.64;101020.97;5039166;28;20045;-84
2022/09/25 11:11:38;;;;;;;1.67;0.80;;;;;;;19.52;31.89;101024.25;5035622;28;20041;-83
2022/09/25 11:14:17;;;;;;;2.28;0.80;;;;;;;19.55;30.91;101019.16;5031890;28;20128;-82
2022/09/25 11:16:48;;;;;;;1.70;0.70;;;;;;;19.58;31.29;101021.56;5046932;28;20037;-83
2022/09/25 11:19:22;;;;;;;1.30;0.70;;;;;;;19.61;30.15;101023.13;5048464;28;20060;-82
2022/09/25 11:21:58;;;;;;;2.63;0.63;;;;;;;19.62;29.61;101022.91;5033148;28;20037;-82
2022/09/25 11:24:39;;;;;;;1.30;0.73;;;;;;;19.63;30.14;101019.06;5031866;28;20048;-82
2022/09/25 11:27:14;;;;;;;2.55;0.75;;;;;;;19.64;30.69;101019.94;5051493;28;20577;-82
2022/09/25 11:29:53;;;;;;;1.67;0.88;;;;;;;19.65;30.12;101016.97;5035613;28;20049;-83
2022/09/25 11:32:29;;;;;;;3.42;1.17;;;;;;;19.66;30.48;101015.06;5031979;28;20041;-84
2022/09/25 11:35:15;;;;;;;3.65;1.60;;;;;;;19.70;30.47;101010.88;5052362;28;20491;-82
2022/09/25 11:37:51;;;;;;;3.00;1.52;;;;;;;19.71;30.60;101009.78;5046807;28;20507;-83
2022/09/25 11:43:24;;;;;;;3.40;1.50;;;;;;;19.78;30.79;101005.22;5073157;28;20131;-84
2022/09/25 11:46:07;;;;;;;3.38;1.35;;;;;;;19.84;30.25;101014.69;5035619;28;20041;-83
2022/09/25 11:48:46;;;;;;;2.95;1.30;;;;;;;19.86;30.13;101001.47;5049369;28;20099;-83
2022/09/25 11:51:23;;;;;;;3.47;1.20;;;;;;;19.92;29.77;101006.28;5036056;28;20041;-83
2022/09/25 11:54:05;;;;;;;2.67;1.13;;;;;;;19.95;29.78;101000.38;5040680;28;20041;-83
2022/09/25 11:57:00;;;;;;;2.80;1.20;;;;;;;19.96;29.83;101000.16;5035337;28;20209;-84
2022/09/25 11:59:43;;;;;;;3.42;1.20;;;;;;;19.99;29.07;100998.91;5043467;28;20037;-83
2022/09/25 12:02:26;;;;;;;2.53;0.98;;;;;;;19.99;29.76;100999.78;5056308;28;20103;-83
2022/09/25 12:05:09;;;;;;;1.50;0.90;;;;;;;19.99;29.23;100993.34;5057234;28;20048;-84
2022/09/25 12:07:51;;;;;;;;;;;;;;;19.68;30.70;100996.31;5050864;28;20462;-83
2022/09/25 12:10:36;;;;;;;1.85;1.00;;;;;;;19.96;29.38;100999.28;5052768;28;19920;-83